createdAt,value
2019-04-21T00:00:10.310Z,101827.95
2019-04-21T00:02:38.089Z,101827.95
2019-04-21T00:05:25.950Z,101823.50
2019-04-21T00:08:01.238Z,101829.66
2019-04-21T00:10:27.214Z,101829.66
2019-04-21T00:12:53.470Z,101819.52
2019-04-21T00:15:18.022Z,101822.61
2019-04-21T00:17:37.258Z,101820.45
2019-04-21T00:20:17.639Z,101827.09
2019-04-21T00:22:47.957Z,101820.20
2019-04-21T00:25:28.732Z,101825.53
2019-04-21T00:28:04.915Z,101825.53
2019-04-21T00:30:39.860Z,101820.73
2019-04-21T00:33:00.185Z,101819.34
2019-04-21T00:35:25.868Z,101809.26
2019-04-21T00:38:13.663Z,101808.78
2019-04-21T00:40:48.014Z,101806.23
2019-04-21T00:43:08.974Z,101801.88
2019-04-21T00:45:39.232Z,101795.75
2019-04-21T00:48:17.582Z,101792.27
2019-04-21T00:51:03.419Z,101796.70
2019-04-21T00:53:31.057Z,101790.25
2019-04-21T00:55:59.040Z,101789.42
2019-04-21T00:58:30.081Z,101792.07
2019-04-21T01:01:00.446Z,101795.57
2019-04-21T01:03:47.394Z,101793.37
2019-04-21T01:05:56.915Z,101776.76
2019-04-21T01:08:25.270Z,101781.08
2019-04-21T01:10:53.179Z,101775.00
2019-04-21T01:13:36.255Z,101773.72
2019-04-21T01:16:00.395Z,101773.38
2019-04-21T01:18:32.885Z,101767.22
2019-04-21T01:20:43.922Z,101769.41
2019-04-21T01:23:14.684Z,101763.72
2019-04-21T01:25:55.438Z,101768.15
2019-04-21T01:28:29.243Z,101761.16
2019-04-21T01:31:03.463Z,101755.02
2019-04-21T01:33:41.245Z,101762.92
2019-04-21T01:36:04.174Z,101763.87
2019-04-21T01:38:39.790Z,101762.16
2019-04-21T01:41:13.225Z,101754.81
2019-04-21T01:43:39.482Z,101759.21
2019-04-21T01:46:09.307Z,101755.75
2019-04-21T01:48:34.199Z,101757.50
2019-04-21T01:51:10.036Z,101757.07
2019-04-21T01:54:03.478Z,101754.44
2019-04-21T01:56:40.147Z,101748.73
2019-04-21T01:59:02.543Z,101748.27
2019-04-21T02:01:42.429Z,101747.84
2019-04-21T02:04:22.716Z,101747.89
2019-04-21T02:06:48.898Z,101741.76
2019-04-21T02:09:09.783Z,101743.07
2019-04-21T02:11:50.926Z,101737.78
2019-04-21T02:14:23.748Z,101740.38
2019-04-21T02:16:49.655Z,101734.70
2019-04-21T02:19:16.593Z,101730.84
2019-04-21T02:21:43.553Z,101736.52
2019-04-21T02:24:31.151Z,101735.23
2019-04-21T02:26:57.277Z,101736.95
2019-04-21T02:29:30.379Z,101731.72
2019-04-21T02:32:11.014Z,101727.79
2019-04-21T02:34:43.010Z,101726.06
2019-04-21T02:37:30.840Z,101727.36
2019-04-21T02:39:46.709Z,101725.64
2019-04-21T02:44:46.769Z,101723.90
2019-04-21T02:47:16.903Z,101716.50
2019-04-21T02:52:20.057Z,101714.35
2019-04-21T02:57:18.441Z,101709.13
2019-04-21T03:08:22.822Z,101711.36
2019-04-21T03:13:14.018Z,101706.55
2019-04-21T03:18:18.766Z,101700.45
2019-04-21T03:20:44.278Z,101700.89
2019-04-21T03:23:23.821Z,101688.20
2019-04-21T03:25:59.050Z,101691.72
2019-04-21T03:28:22.210Z,101696.08
2019-04-21T03:38:29.299Z,101685.60
2019-04-21T03:40:47.379Z,101680.80
2019-04-21T03:45:51.474Z,101679.05
2019-04-21T03:48:31.910Z,101676.45
2019-04-21T03:50:56.331Z,101673.40
2019-04-21T03:53:24.907Z,101674.27
2019-04-21T03:58:35.136Z,101672.08
2019-04-21T04:01:19.755Z,101673.84
2019-04-21T04:06:33.998Z,101675.57
2019-04-21T04:09:21.446Z,101673.83
2019-04-21T04:11:55.168Z,101674.70
2019-04-21T04:17:02.473Z,101679.49
2019-04-21T04:19:27.053Z,101682.52
2019-04-21T04:24:22.190Z,101676.85
2019-04-21T04:27:02.546Z,101675.13
2019-04-21T04:29:22.445Z,101682.52
2019-04-21T04:34:47.766Z,101673.38
2019-04-21T04:37:23.599Z,101674.70
2019-04-21T04:40:02.871Z,101668.13
2019-04-21T04:42:41.636Z,101669.71
2019-04-21T04:47:33.413Z,101673.70
2019-04-21T04:49:59.363Z,101671.80
2019-04-21T04:52:38.472Z,101660.13
2019-04-21T04:55:07.658Z,101658.98
2019-04-21T04:57:49.229Z,101657.52
2019-04-21T05:12:43.783Z,101644.56
2019-04-21T05:15:19.268Z,101650.45
2019-04-21T05:22:45.936Z,101651.74
2019-04-21T05:25:08.546Z,101655.95
2019-04-21T05:27:38.560Z,101643.25
2019-04-21T05:30:27.079Z,101658.79
2019-04-21T05:33:06.960Z,101651.97
2019-04-21T05:35:49.266Z,101649.31
2019-04-21T05:38:21.768Z,101644.72
2019-04-21T05:40:52.336Z,101639.70
2019-04-21T05:43:32.478Z,101637.27
2019-04-21T05:46:19.673Z,101640.14
2019-04-21T05:51:03.559Z,101646.61
2019-04-21T05:53:35.912Z,101635.39
2019-04-21T05:56:09.964Z,101630.47
2019-04-21T05:58:39.171Z,101625.02
2019-04-21T06:06:20.494Z,101628.73
2019-04-21T06:08:43.176Z,101621.45
2019-04-21T06:11:19.173Z,101619.91
2019-04-21T06:13:58.039Z,101614.83
2019-04-21T06:16:24.172Z,101622.31
2019-04-21T06:18:53.250Z,101617.64
2019-04-21T06:21:23.348Z,101620.20
2019-04-21T06:23:59.233Z,101616.80
2019-04-21T06:28:59.291Z,101610.16
2019-04-21T06:34:06.815Z,101610.93
2019-04-21T06:37:19.218Z,101604.45
2019-04-21T06:39:40.431Z,101607.85
2019-04-21T06:42:05.276Z,101609.64
2019-04-21T06:44:40.560Z,101608.89
2019-04-21T06:47:17.590Z,101602.44
2019-04-21T06:49:41.109Z,101596.11
2019-04-21T06:52:22.184Z,101594.48
2019-04-21T06:54:41.055Z,101590.09
2019-04-21T06:57:11.759Z,101581.78
2019-04-21T06:59:38.983Z,101583.66
2019-04-21T07:04:46.918Z,101588.05
2019-04-21T07:07:14.411Z,101586.72
2019-04-21T07:09:45.391Z,101583.77
2019-04-21T07:12:13.692Z,101576.28
2019-04-21T07:14:44.119Z,101581.23
2019-04-21T07:17:22.880Z,101572.54
2019-04-21T07:19:48.067Z,101572.84
2019-04-21T07:22:24.689Z,101573.99
2019-04-21T07:24:48.201Z,101572.14
2019-04-21T07:27:26.978Z,101573.31
2019-04-21T07:29:56.615Z,101574.44
2019-04-21T07:32:20.809Z,101570.03
2019-04-21T07:34:54.587Z,101564.86
2019-04-21T07:37:23.904Z,101568.80
2019-04-21T07:39:54.814Z,101561.36
2019-04-21T07:42:25.403Z,101563.28
2019-04-21T07:44:55.320Z,101565.22
2019-04-21T07:47:34.433Z,101561.56
2019-04-21T07:50:14.876Z,101562.15
2019-04-21T07:53:05.054Z,101558.66
2019-04-21T07:57:55.935Z,101560.27
2019-04-21T08:03:05.211Z,101554.30
2019-04-21T08:05:35.248Z,101546.81
2019-04-21T08:08:21.114Z,101548.58
2019-04-21T08:11:32.660Z,101548.91
2019-04-21T08:15:14.588Z,101547.91
2019-04-21T08:18:11.760Z,101546.32
2019-04-21T08:21:28.040Z,101541.52
2019-04-21T08:24:35.270Z,101545.61
2019-04-21T08:28:01.444Z,101534.27
2019-04-21T08:31:13.986Z,101533.14
2019-04-21T08:33:51.406Z,101526.30
2019-04-21T08:38:51.505Z,101519.06
2019-04-21T08:41:12.491Z,101520.48
2019-04-21T08:43:48.111Z,101512.54
2019-04-21T08:46:20.240Z,101512.13
2019-04-21T08:48:52.581Z,101503.42
2019-04-21T08:56:43.188Z,101500.97
2019-04-21T08:59:17.863Z,101507.30
2019-04-21T09:01:55.547Z,101494.55
2019-04-21T09:04:24.445Z,101492.86
2019-04-21T09:09:31.973Z,101484.55
2019-04-21T09:12:01.638Z,101481.91
2019-04-21T09:14:33.785Z,101475.11
2019-04-21T09:16:56.398Z,101474.67
2019-04-21T09:19:44.398Z,101468.17
2019-04-21T09:22:03.991Z,101468.36
2019-04-21T09:24:33.632Z,101457.81
2019-04-21T09:27:07.138Z,101458.19
2019-04-21T09:29:25.671Z,101454.28
2019-04-21T09:31:48.020Z,101454.08
2019-04-21T09:34:24.859Z,101446.98
2019-04-21T09:36:53.137Z,101444.19
2019-04-21T09:39:24.103Z,101433.18
2019-04-21T09:41:54.490Z,101439.96
2019-04-21T09:44:27.558Z,101438.67
2019-04-21T09:46:54.878Z,101425.12
2019-04-21T09:49:25.950Z,101420.22
2019-04-21T09:51:52.998Z,101427.19
2019-04-21T09:54:27.789Z,101417.59
2019-04-21T09:56:58.616Z,101423.53
2019-04-21T09:59:28.026Z,101417.50
2019-04-21T10:02:06.673Z,101414.69
2019-04-21T10:04:26.673Z,101406.39
2019-04-21T10:06:56.277Z,101401.70
2019-04-21T10:09:26.442Z,101397.34
2019-04-21T10:11:55.049Z,101389.19
2019-04-21T10:14:26.423Z,101393.25
2019-04-21T10:17:15.087Z,101381.25
2019-04-21T10:19:46.374Z,101378.30
2019-04-21T10:22:16.904Z,101380.98
2019-04-21T10:24:46.709Z,101380.97
2019-04-21T10:27:19.032Z,101373.23
2019-04-21T10:29:47.262Z,101365.77
2019-04-21T10:32:19.712Z,101354.36
2019-04-21T10:34:49.609Z,101352.03
2019-04-21T10:37:18.877Z,101348.23
2019-04-21T10:39:47.668Z,101341.87
2019-04-21T10:42:17.366Z,101347.34
2019-04-21T10:44:47.187Z,101332.89
2019-04-21T10:47:16.574Z,101335.09
2019-04-21T10:49:46.514Z,101330.34
2019-04-21T10:52:28.920Z,101328.41
2019-04-21T10:55:20.799Z,101323.34
2019-04-21T10:57:32.574Z,101317.23
2019-04-21T11:00:08.366Z,101315.02
2019-04-21T11:02:44.223Z,101315.77
2019-04-21T11:05:12.828Z,101308.05
2019-04-21T11:08:00.913Z,101304.39
2019-04-21T11:10:20.345Z,101305.86
2019-04-21T11:12:50.668Z,101303.17
2019-04-21T11:15:23.225Z,101305.36
2019-04-21T11:17:52.323Z,101300.33
2019-04-21T11:20:22.874Z,101298.51
2019-04-21T11:22:51.844Z,101289.42
2019-04-21T11:25:20.420Z,101290.75
2019-04-21T11:27:49.343Z,101279.50
2019-04-21T11:30:21.081Z,101276.73
2019-04-21T11:32:51.143Z,101278.94
2019-04-21T11:35:23.289Z,101277.86
2019-04-21T11:38:07.237Z,101278.34
2019-04-21T11:40:29.716Z,101273.34
2019-04-21T11:42:59.723Z,101267.37
2019-04-21T11:45:32.730Z,101263.66
2019-04-21T11:48:10.499Z,101264.43
2019-04-21T11:50:39.439Z,101263.16
2019-04-21T11:53:08.321Z,101259.99
2019-04-21T11:55:41.163Z,101257.56
2019-04-21T11:58:09.844Z,101254.67
2019-04-21T12:00:39.825Z,101251.03
2019-04-21T12:03:09.229Z,101244.87
2019-04-21T12:05:39.866Z,101247.06
2019-04-21T12:08:21.013Z,101241.73
2019-04-21T12:10:39.714Z,101241.44
2019-04-21T12:13:08.454Z,101238.59
2019-04-21T12:15:38.943Z,101241.52
2019-04-21T12:18:08.188Z,101245.77
2019-04-21T12:20:37.631Z,101231.41
2019-04-21T12:23:06.831Z,101233.35
2019-04-21T12:25:39.060Z,101223.67
2019-04-21T12:28:08.009Z,101225.95
2019-04-21T12:30:37.791Z,101220.13
2019-04-21T12:33:25.489Z,101216.78
2019-04-21T12:35:55.651Z,101212.53
2019-04-21T12:38:36.480Z,101206.70
2019-04-21T12:40:57.818Z,101209.41
2019-04-21T12:43:26.511Z,101202.42
2019-04-21T12:45:55.870Z,101200.87
2019-04-21T12:48:26.207Z,101191.79
2019-04-21T12:50:55.179Z,101186.48
2019-04-21T12:53:23.762Z,101180.94
2019-04-21T12:55:53.895Z,101179.30
2019-04-21T12:58:25.578Z,101179.35
2019-04-21T13:00:56.759Z,101168.36
2019-04-21T13:03:27.413Z,101169.80
2019-04-21T13:05:56.070Z,101164.58
2019-04-21T13:08:25.041Z,101161.27
2019-04-21T13:10:56.086Z,101157.34
2019-04-21T13:13:26.193Z,101149.41
2019-04-21T13:15:57.602Z,101145.59
2019-04-21T13:18:27.048Z,101140.91
2019-04-21T13:20:56.108Z,101138.76
2019-04-21T13:23:27.084Z,101127.39
2019-04-21T13:25:56.140Z,101127.49
2019-04-21T13:28:24.912Z,101129.97
2019-04-21T13:30:56.051Z,101123.40
2019-04-21T13:33:25.333Z,101123.52
2019-04-21T13:35:55.135Z,101118.30
2019-04-21T13:38:33.261Z,101112.58
2019-04-21T13:41:31.142Z,101102.41
2019-04-21T13:43:49.144Z,101099.45
2019-04-21T13:46:20.559Z,101100.34
2019-04-21T13:48:50.754Z,101099.81
2019-04-21T13:51:19.548Z,101100.20
2019-04-21T13:53:49.457Z,101088.41
2019-04-21T13:56:18.495Z,101093.18
2019-04-21T13:58:48.395Z,101081.63
2019-04-21T14:01:18.085Z,101083.45
2019-04-21T14:03:49.490Z,101083.34
2019-04-21T14:06:20.487Z,101068.36
2019-04-21T14:08:50.592Z,101072.75
2019-04-21T14:11:20.079Z,101065.40
2019-04-21T14:13:50.285Z,101063.80
2019-04-21T14:16:20.306Z,101060.17
2019-04-21T14:18:49.629Z,101065.10
2019-04-21T14:21:18.897Z,101053.55
2019-04-21T14:23:50.818Z,101058.13
2019-04-21T14:26:18.401Z,101042.83
2019-04-21T14:28:47.546Z,101047.25
2019-04-21T14:31:17.611Z,101042.14
2019-04-21T14:33:46.173Z,101038.42
2019-04-21T14:36:17.210Z,101038.56
2019-04-21T14:38:47.676Z,101035.88
2019-04-21T14:41:16.265Z,101029.16
2019-04-21T14:43:47.973Z,101026.40
2019-04-21T14:46:21.768Z,101027.53
2019-04-21T14:49:29.084Z,101025.06
2019-04-21T14:52:21.194Z,101021.20
2019-04-21T14:55:12.278Z,101019.23
2019-04-21T14:57:41.142Z,101016.13
2019-04-21T15:00:11.209Z,101012.30
2019-04-21T15:02:39.938Z,101014.74
2019-04-21T15:05:11.475Z,101004.95
2019-04-21T15:07:41.407Z,101004.30
2019-04-21T15:10:18.012Z,101000.69
2019-04-21T15:12:41.597Z,101002.13
2019-04-21T15:15:10.289Z,101007.89
2019-04-21T15:17:39.885Z,100991.50
2019-04-21T15:20:13.510Z,100999.83
2019-04-21T15:22:38.850Z,100990.52
2019-04-21T15:25:08.115Z,100989.66
2019-04-21T15:27:37.049Z,100989.47
2019-04-21T15:30:06.954Z,100986.73
2019-04-21T15:32:36.729Z,100979.31
2019-04-21T15:35:06.825Z,100983.83
2019-04-21T15:37:35.984Z,100976.34
2019-04-21T15:40:14.976Z,100972.94
2019-04-21T15:42:36.630Z,100970.94
2019-04-21T15:45:06.354Z,100971.02
2019-04-21T15:47:35.983Z,100968.01
2019-04-21T15:50:10.168Z,100967.44
2019-04-21T15:52:37.965Z,100963.22
2019-04-21T15:55:22.947Z,100965.36
2019-04-21T15:58:01.083Z,100966.34
2019-04-21T16:00:46.833Z,100956.80
2019-04-21T16:04:04.309Z,100961.31
2019-04-21T16:07:11.943Z,100955.45
2019-04-21T16:10:26.204Z,100957.88
2019-04-21T16:13:11.792Z,100951.82
2019-04-21T16:16:12.770Z,100956.20
2019-04-21T16:19:16.355Z,100937.41
2019-04-21T16:22:18.797Z,100937.41
2019-04-21T16:25:23.172Z,100948.00
2019-04-21T16:27:51.043Z,100938.43
2019-04-21T16:30:20.086Z,100942.84
2019-04-21T16:32:49.886Z,100941.66
2019-04-21T16:35:22.115Z,100938.49
2019-04-21T16:37:50.923Z,100931.17
2019-04-21T16:40:21.364Z,100933.05
2019-04-21T16:42:50.126Z,100928.30
2019-04-21T16:45:18.982Z,100923.03
2019-04-21T16:47:53.350Z,100922.31
2019-04-21T16:50:21.545Z,100917.45
2019-04-21T16:53:08.254Z,100915.13
2019-04-21T16:55:53.319Z,100916.39
2019-04-21T16:58:28.920Z,100918.49
2019-04-21T17:01:05.128Z,100908.09
2019-04-21T17:03:32.603Z,100914.94
2019-04-21T17:06:04.644Z,100910.32
2019-04-21T17:08:31.831Z,100908.23
2019-04-21T17:11:10.764Z,100910.34
2019-04-21T17:13:33.583Z,100908.63
2019-04-21T17:16:29.879Z,100913.12
2019-04-21T17:18:48.244Z,100917.28
2019-04-21T17:21:05.055Z,100910.78
2019-04-21T17:23:33.626Z,100911.61
2019-04-21T17:26:03.390Z,100908.91
2019-04-21T17:28:32.039Z,100907.70
2019-04-21T17:31:02.361Z,100905.80
2019-04-21T17:33:32.351Z,100903.98
2019-04-21T17:36:03.001Z,100908.98
2019-04-21T17:38:34.158Z,100914.75
2019-04-21T17:41:13.869Z,100907.91
2019-04-21T17:43:34.693Z,100913.55
2019-04-21T17:46:04.856Z,100903.72
2019-04-21T17:48:34.672Z,100902.69
2019-04-21T17:51:17.320Z,100908.55
2019-04-21T17:53:56.931Z,100901.55
2019-04-21T17:56:55.217Z,100909.54
2019-04-21T17:59:16.394Z,100905.08
2019-04-21T18:01:47.409Z,100905.23
2019-04-21T18:04:18.238Z,100908.39
2019-04-21T18:07:04.849Z,100906.03
2019-04-21T18:10:04.753Z,100906.57
2019-04-21T18:12:29.211Z,100919.91
2019-04-21T18:14:56.782Z,100914.87
2019-04-21T18:17:20.450Z,100921.00
2019-04-21T18:19:52.424Z,100924.42
2019-04-21T18:22:38.536Z,100918.74
2019-04-21T18:25:15.354Z,100929.03
2019-04-21T18:27:40.592Z,100929.42
2019-04-21T18:30:52.465Z,100935.72
2019-04-21T18:33:27.440Z,100931.16
2019-04-21T18:36:15.825Z,100937.02
2019-04-21T18:39:10.365Z,100931.76
2019-04-21T18:41:28.767Z,100935.31
2019-04-21T18:44:44.387Z,100933.98
2019-04-21T18:47:14.759Z,100931.14
2019-04-21T18:49:29.349Z,100930.28
2019-04-21T18:52:16.817Z,100925.88
2019-04-21T18:54:49.165Z,100935.13
2019-04-21T18:57:19.546Z,100932.08
2019-04-21T18:59:44.008Z,100933.56
2019-04-21T19:02:14.972Z,100930.59
2019-04-21T19:04:43.111Z,100936.66
2019-04-21T19:07:30.611Z,100934.62
2019-04-21T19:14:59.342Z,100935.78
2019-04-21T19:20:16.011Z,100947.27
2019-04-21T19:22:35.983Z,100946.91
2019-04-21T19:25:09.951Z,100947.68
2019-04-21T19:27:40.242Z,100950.13
2019-04-21T19:32:39.038Z,100948.23
2019-04-21T19:34:59.882Z,100945.49
2019-04-21T19:37:38.945Z,100947.57
2019-04-21T19:40:12.087Z,100941.49
2019-04-21T19:42:45.559Z,100945.22
2019-04-21T19:45:17.653Z,100938.95
2019-04-21T19:47:56.681Z,100941.92
2019-04-21T19:50:26.493Z,100935.52
2019-04-21T19:52:43.748Z,100937.25
2019-04-21T19:55:06.606Z,100937.98
2019-04-21T19:57:38.892Z,100931.56
2019-04-21T20:00:09.593Z,100933.30
2019-04-21T20:02:38.503Z,100931.95
2019-04-21T20:05:13.000Z,100940.95
2019-04-21T20:07:55.348Z,100929.14
2019-04-21T20:10:34.964Z,100924.03
2019-04-21T20:13:02.858Z,100925.69
2019-04-21T20:15:35.855Z,100923.88
2019-04-21T20:18:00.273Z,100920.73
2019-04-21T20:20:17.279Z,100918.08
2019-04-21T20:22:50.316Z,100919.00
2019-04-21T20:25:20.895Z,100915.02
2019-04-21T20:27:58.140Z,100914.91
2019-04-21T20:30:40.859Z,100910.70
2019-04-21T20:33:19.836Z,100917.15
2019-04-21T20:35:46.831Z,100918.27
2019-04-21T20:38:02.282Z,100921.70
2019-04-21T20:40:33.373Z,100916.80
2019-04-21T20:43:13.473Z,100927.79
2019-04-21T20:45:49.455Z,100923.59
2019-04-21T20:48:07.261Z,100932.58
2019-04-21T20:50:36.451Z,100931.59
2019-04-21T20:53:17.635Z,100930.70
2019-04-21T20:55:48.605Z,100921.41
2019-04-21T20:58:15.091Z,100927.12
2019-04-21T21:01:04.120Z,100926.28
2019-04-21T21:03:24.700Z,100927.45
2019-04-21T21:05:49.939Z,100921.05
2019-04-21T21:08:24.641Z,100929.92
2019-04-21T21:10:51.222Z,100922.66
2019-04-21T21:13:32.192Z,100928.17
2019-04-21T21:16:06.197Z,100922.00
2019-04-21T21:18:59.582Z,100922.15
2019-04-21T21:21:03.404Z,100917.71
2019-04-21T21:23:29.147Z,100916.67
2019-04-21T21:26:07.081Z,100916.45
2019-04-21T21:28:29.044Z,100913.05
2019-04-21T21:31:06.003Z,100918.20
2019-04-21T21:33:39.489Z,100916.13
2019-04-21T21:36:06.999Z,100909.50
2019-04-21T21:38:37.545Z,100911.24
2019-04-21T21:41:01.293Z,100914.06
2019-04-21T21:43:23.610Z,100911.53
2019-04-21T21:45:59.058Z,100921.00
2019-04-21T21:48:37.979Z,100913.42
2019-04-21T21:51:04.398Z,100916.34
2019-04-21T21:53:28.863Z,100909.10
2019-04-21T21:55:58.517Z,100909.48
2019-04-21T21:58:36.455Z,100905.95
2019-04-21T22:01:02.968Z,100905.45
2019-04-21T22:03:39.093Z,100904.19
2019-04-21T22:06:09.934Z,100899.59
2019-04-21T22:08:38.942Z,100899.47
2019-04-21T22:11:08.895Z,100897.92
2019-04-21T22:13:49.017Z,100899.02
2019-04-21T22:16:14.068Z,100899.24
2019-04-21T22:19:03.505Z,100903.46
2019-04-21T22:21:26.609Z,100906.80
2019-04-21T22:23:51.645Z,100901.16
2019-04-21T22:26:13.300Z,100907.77
2019-04-21T22:28:43.560Z,100901.16
2019-04-21T22:31:17.066Z,100902.85
2019-04-21T22:33:48.408Z,100898.59
2019-04-21T22:36:26.734Z,100901.77
2019-04-21T22:39:06.381Z,100899.86
2019-04-21T22:41:28.157Z,100898.53
2019-04-21T22:43:51.143Z,100895.34
2019-04-21T22:46:16.329Z,100903.94
2019-04-21T22:48:52.182Z,100897.87
2019-04-21T22:51:23.763Z,100898.23
2019-04-21T22:53:48.842Z,100899.91
2019-04-21T22:56:23.614Z,100902.38
2019-04-21T22:58:48.280Z,100903.62
2019-04-21T23:01:24.194Z,100896.24
2019-04-21T23:03:54.702Z,100894.37
2019-04-21T23:06:25.065Z,100890.72
2019-04-21T23:08:55.091Z,100903.75
2019-04-21T23:11:34.942Z,100893.44
2019-04-21T23:14:02.506Z,100896.45
2019-04-21T23:16:34.945Z,100893.59
2019-04-21T23:19:15.892Z,100896.50
2019-04-21T23:21:49.731Z,100894.58
2019-04-21T23:24:26.210Z,100898.14
2019-04-21T23:26:48.736Z,100896.95
2019-04-21T23:29:30.714Z,100893.24
2019-04-21T23:31:50.275Z,100896.20
2019-04-21T23:34:06.426Z,100892.50
2019-04-21T23:36:37.579Z,100893.67
2019-04-21T23:39:15.990Z,100886.41
2019-04-21T23:41:42.341Z,100886.15
2019-04-21T23:44:12.207Z,100893.83
2019-04-21T23:46:40.497Z,100883.48
2019-04-21T23:49:22.213Z,100888.44
2019-04-21T23:51:47.703Z,100889.34
2019-04-21T23:54:11.392Z,100887.59
2019-04-21T23:56:44.005Z,100888.69
2019-04-21T23:59:16.047Z,100881.66
